createdAt,value
2023-01-25T00:00:48.747Z,103071.53
2023-01-25T00:03:16.516Z,103075.06
2023-01-25T00:05:45.691Z,103080.06
2023-01-25T00:08:13.412Z,103073.75
2023-01-25T00:10:41.211Z,103070.56
2023-01-25T00:13:08.914Z,103072.47
2023-01-25T00:15:36.692Z,103080.38
2023-01-25T00:18:04.614Z,103080.13
2023-01-25T00:20:32.360Z,103085.63
2023-01-25T00:23:01.423Z,103084.81
2023-01-25T00:25:29.225Z,103082.97
2023-01-25T00:27:56.970Z,103086.66
2023-01-25T00:30:24.877Z,103091.88
2023-01-25T00:32:58.926Z,103092.03
2023-01-25T00:35:32.403Z,103081.31
2023-01-25T00:38:03.980Z,103090.75
2023-01-25T00:40:31.755Z,103084.78
2023-01-25T00:43:00.748Z,103089.25
2023-01-25T00:45:28.611Z,103092.63
2023-01-25T00:47:57.180Z,103089.78
2023-01-25T00:50:24.951Z,103091.91
2023-01-25T00:52:52.671Z,103087.56
2023-01-25T00:55:21.772Z,103087.53
2023-01-25T00:57:49.452Z,103091.22
2023-01-25T01:00:18.045Z,103087.72
2023-01-25T01:02:45.744Z,103086.53
2023-01-25T01:05:13.706Z,103090.09
2023-01-25T01:07:41.668Z,103089.06
2023-01-25T01:10:10.134Z,103085.44
2023-01-25T01:12:39.186Z,103081.03
2023-01-25T01:15:08.405Z,103081.97
2023-01-25T01:17:36.322Z,103079.34
2023-01-25T01:20:04.310Z,103079.03
2023-01-25T01:22:32.009Z,103074.22
2023-01-25T01:24:59.730Z,103076.31
2023-01-25T01:27:27.415Z,103080.72
2023-01-25T01:29:56.558Z,103070.38
2023-01-25T01:32:24.627Z,103070.22
2023-01-25T01:34:52.461Z,103079.06
2023-01-25T01:37:20.229Z,103073.09
2023-01-25T01:39:48.037Z,103072.16
2023-01-25T01:42:15.771Z,103068.84
2023-01-25T01:44:47.626Z,103069.00
2023-01-25T01:47:22.621Z,103072.47
2023-01-25T01:49:54.166Z,103071.94
2023-01-25T01:52:28.124Z,103068.59
2023-01-25T01:54:59.254Z,103073.50
2023-01-25T01:57:31.336Z,103062.03
2023-01-25T02:00:02.275Z,103063.56
2023-01-25T02:02:31.437Z,103057.06
2023-01-25T02:05:02.332Z,103066.16
2023-01-25T02:07:35.220Z,103065.22
2023-01-25T02:10:05.878Z,103052.97
2023-01-25T02:12:33.802Z,103057.44
2023-01-25T02:15:01.664Z,103059.16
2023-01-25T02:17:33.119Z,103060.97
2023-01-25T02:20:08.870Z,103064.38
2023-01-25T02:22:46.074Z,103063.31
2023-01-25T02:25:17.660Z,103059.19
2023-01-25T02:27:50.067Z,103060.31
2023-01-25T02:30:17.930Z,103060.06
2023-01-25T02:32:45.809Z,103070.81
2023-01-25T02:35:20.333Z,103061.81
2023-01-25T02:37:48.401Z,103067.19
2023-01-25T02:40:18.247Z,103068.84
2023-01-25T02:42:46.491Z,103063.38
2023-01-25T02:45:17.723Z,103076.25
2023-01-25T02:47:45.454Z,103065.34
2023-01-25T02:50:15.119Z,103072.47
2023-01-25T02:52:43.724Z,103066.06
2023-01-25T02:55:11.623Z,103077.31
2023-01-25T02:57:40.707Z,103060.09
2023-01-25T03:00:09.785Z,103061.47
2023-01-25T03:02:37.901Z,103061.22
2023-01-25T03:05:06.655Z,103058.75
2023-01-25T03:07:34.603Z,103063.75
2023-01-25T03:10:02.377Z,103052.75
2023-01-25T03:12:30.180Z,103059.25
2023-01-25T03:14:59.321Z,103051.31
2023-01-25T03:17:27.043Z,103045.53
2023-01-25T03:19:55.081Z,103052.28
2023-01-25T03:22:22.763Z,103046.81
2023-01-25T03:24:50.530Z,103049.66
2023-01-25T03:27:18.523Z,103048.88
2023-01-25T03:29:47.176Z,103039.91
2023-01-25T03:32:16.392Z,103038.63
2023-01-25T03:34:44.276Z,103041.44
2023-01-25T03:37:11.984Z,103042.88
2023-01-25T03:39:39.833Z,103046.16
2023-01-25T03:42:08.003Z,103039.97
2023-01-25T03:44:35.824Z,103044.81
2023-01-25T03:47:03.647Z,103035.63
2023-01-25T03:49:32.810Z,103038.22
2023-01-25T03:52:00.588Z,103030.94
2023-01-25T03:54:28.469Z,103032.06
2023-01-25T03:56:56.311Z,103029.19
2023-01-25T03:59:24.338Z,103020.75
2023-01-25T04:01:52.473Z,103031.63
2023-01-25T04:04:20.276Z,103032.88
2023-01-25T04:06:49.354Z,103032.22
2023-01-25T04:09:17.256Z,103020.47
2023-01-25T04:11:44.997Z,103021.63
2023-01-25T04:14:13.020Z,103019.81
2023-01-25T04:16:40.840Z,103017.28
2023-01-25T04:19:08.761Z,103015.38
2023-01-25T04:21:36.495Z,103018.75
2023-01-25T04:24:06.664Z,103017.97
2023-01-25T04:26:34.501Z,103018.81
2023-01-25T04:29:02.309Z,103008.06
2023-01-25T04:31:30.129Z,103013.47
2023-01-25T04:33:58.120Z,103023.22
2023-01-25T04:36:25.839Z,103011.75
2023-01-25T04:38:53.609Z,103015.25
2023-01-25T04:41:26.820Z,103013.47
2023-01-25T04:43:54.562Z,103011.28
2023-01-25T04:46:22.491Z,103013.09
2023-01-25T04:48:50.370Z,103013.13
2023-01-25T04:51:18.143Z,103012.31
2023-01-25T04:53:46.114Z,103012.50
2023-01-25T04:56:14.044Z,103000.56
2023-01-25T04:58:43.209Z,103002.81
2023-01-25T05:01:11.223Z,103000.94
2023-01-25T05:03:39.055Z,103004.72
2023-01-25T05:06:07.309Z,103001.81
2023-01-25T05:08:35.129Z,103007.94
2023-01-25T05:11:02.956Z,103004.53
2023-01-25T05:13:30.781Z,103000.81
2023-01-25T05:15:59.890Z,102999.91
2023-01-25T05:18:35.751Z,103002.81
2023-01-25T05:21:31.014Z,102997.50
2023-01-25T05:23:59.013Z,102994.88
2023-01-25T05:26:44.140Z,102988.88
2023-01-25T05:29:11.968Z,102988.88
2023-01-25T05:31:41.219Z,102987.06
2023-01-25T05:34:09.848Z,102984.50
2023-01-25T05:36:37.619Z,102993.31
2023-01-25T05:39:06.333Z,102992.00
2023-01-25T05:41:34.222Z,102990.84
2023-01-25T05:44:02.157Z,102984.22
2023-01-25T05:46:29.931Z,102985.88
2023-01-25T05:48:59.120Z,102997.06
2023-01-25T05:51:26.820Z,102997.13
2023-01-25T05:53:56.202Z,102997.03
2023-01-25T05:56:24.437Z,102994.38
2023-01-25T05:58:54.629Z,103002.00
2023-01-25T06:01:22.943Z,103001.16
2023-01-25T06:03:50.879Z,102999.94
2023-01-25T06:06:20.048Z,102999.84
2023-01-25T06:08:48.859Z,103002.44
2023-01-25T06:11:18.642Z,103002.56
2023-01-25T06:13:46.942Z,102997.91
2023-01-25T06:16:14.768Z,103003.59
2023-01-25T06:18:43.113Z,103000.41
2023-01-25T06:21:11.449Z,103002.28
2023-01-25T06:23:41.365Z,103005.06
2023-01-25T06:26:12.676Z,103016.84
2023-01-25T06:28:41.002Z,103003.31
2023-01-25T06:31:10.226Z,103000.03
2023-01-25T06:33:38.704Z,103000.84
2023-01-25T06:36:08.401Z,103003.94
2023-01-25T06:38:36.141Z,103002.94
2023-01-25T06:41:06.897Z,103002.66
2023-01-25T06:43:35.472Z,103002.41
2023-01-25T06:46:04.328Z,103009.34
2023-01-25T06:48:32.913Z,103012.56
2023-01-25T06:51:02.649Z,103006.50
2023-01-25T06:53:32.596Z,103003.38
2023-01-25T06:56:01.491Z,103008.09
2023-01-25T06:58:31.467Z,103007.31
2023-01-25T07:01:02.351Z,103005.78
2023-01-25T07:03:30.210Z,103013.13
2023-01-25T07:06:02.220Z,103007.56
2023-01-25T07:08:30.697Z,103012.25
2023-01-25T07:10:59.578Z,103008.66
2023-01-25T07:13:29.007Z,103015.97
2023-01-25T07:16:00.344Z,103019.34
2023-01-25T07:18:30.005Z,103017.78
2023-01-25T07:21:04.289Z,103024.59
2023-01-25T07:23:33.387Z,103024.91
2023-01-25T07:26:01.973Z,103023.75
2023-01-25T07:28:30.291Z,103022.72
2023-01-25T07:31:05.821Z,103030.88
2023-01-25T07:33:33.749Z,103029.78
2023-01-25T07:36:01.846Z,103035.44
2023-01-25T07:38:29.716Z,103036.63
2023-01-25T07:40:57.602Z,103036.06
2023-01-25T07:43:25.630Z,103038.28
2023-01-25T07:45:54.331Z,103040.47
2023-01-25T07:48:23.491Z,103039.44
2023-01-25T07:51:10.378Z,103036.91
2023-01-25T07:53:38.205Z,103045.72
2023-01-25T07:56:06.504Z,103041.63
2023-01-25T07:58:34.300Z,103042.59
2023-01-25T08:01:07.627Z,103039.63
2023-01-25T08:03:36.893Z,103043.91
2023-01-25T08:06:06.193Z,103046.81
2023-01-25T08:08:34.740Z,103041.66
2023-01-25T08:11:08.035Z,103035.41
2023-01-25T08:13:35.748Z,103035.84
2023-01-25T08:16:03.867Z,103034.81
2023-01-25T08:18:31.654Z,103037.84
2023-01-25T08:21:01.571Z,103042.44
2023-01-25T08:23:29.455Z,103032.16
2023-01-25T08:25:57.452Z,103031.28
2023-01-25T08:28:25.266Z,103031.69
2023-01-25T08:30:57.452Z,103027.59
2023-01-25T08:33:25.901Z,103030.00
2023-01-25T08:35:57.309Z,103032.28
2023-01-25T08:38:26.546Z,103028.34
2023-01-25T08:40:54.362Z,103032.41
2023-01-25T08:43:22.166Z,103033.19
2023-01-25T08:45:58.824Z,103033.06
2023-01-25T08:48:26.542Z,103029.09
2023-01-25T08:50:54.554Z,103028.19
2023-01-25T08:53:22.902Z,103042.22
2023-01-25T08:55:52.062Z,103030.16
2023-01-25T08:58:22.273Z,103033.81
2023-01-25T09:00:50.474Z,103031.81
2023-01-25T09:03:19.095Z,103033.97
2023-01-25T09:05:47.792Z,103029.97
2023-01-25T09:08:15.637Z,103034.88
2023-01-25T09:10:43.380Z,103037.41
2023-01-25T09:13:12.913Z,103042.09
2023-01-25T09:15:40.952Z,103042.22
2023-01-25T09:18:09.955Z,103036.81
2023-01-25T09:20:40.426Z,103030.97
2023-01-25T09:23:08.417Z,103034.06
2023-01-25T09:25:36.446Z,103031.84
2023-01-25T09:28:11.117Z,103026.97
2023-01-25T09:30:48.456Z,103031.47
2023-01-25T09:33:17.666Z,103028.47
2023-01-25T09:35:49.537Z,103024.75
2023-01-25T09:38:17.374Z,103031.97
2023-01-25T09:40:56.347Z,103022.31
2023-01-25T09:43:34.158Z,103033.03
2023-01-25T09:46:14.262Z,103024.03
2023-01-25T09:48:56.483Z,103015.06
2023-01-25T09:51:59.268Z,103016.75
2023-01-25T09:54:29.932Z,103014.22
2023-01-25T09:57:00.300Z,103015.59
2023-01-25T09:59:31.525Z,103020.88
2023-01-25T10:02:04.248Z,103012.44
2023-01-25T10:04:38.917Z,103011.25
2023-01-25T10:07:21.993Z,103011.03
2023-01-25T10:09:58.802Z,103004.22
2023-01-25T10:12:28.824Z,103013.63
2023-01-25T10:14:56.623Z,103007.28
2023-01-25T10:17:32.027Z,103006.25
2023-01-25T10:20:14.664Z,103009.66
2023-01-25T10:22:47.877Z,103013.97
2023-01-25T10:25:30.382Z,103007.50
2023-01-25T10:28:15.939Z,103012.09
2023-01-25T10:30:53.984Z,103002.78
2023-01-25T10:33:23.241Z,103001.16
2023-01-25T10:35:51.610Z,102999.22
2023-01-25T10:38:25.795Z,102993.50
2023-01-25T10:40:58.355Z,102989.50
2023-01-25T10:43:26.126Z,102989.78
2023-01-25T10:45:54.072Z,102985.63
2023-01-25T10:48:25.839Z,102986.78
2023-01-25T10:50:55.801Z,102991.41
2023-01-25T10:53:27.543Z,102991.88
2023-01-25T10:56:19.501Z,102985.44
2023-01-25T10:58:48.910Z,102977.81
2023-01-25T11:01:28.382Z,102974.16
2023-01-25T11:03:58.349Z,102967.75
2023-01-25T11:06:35.325Z,102968.88
2023-01-25T11:09:03.766Z,102965.53
2023-01-25T11:11:40.459Z,102962.16
2023-01-25T11:14:18.255Z,102955.84
2023-01-25T11:16:48.456Z,102947.38
2023-01-25T11:19:34.801Z,102945.28
2023-01-25T11:22:04.484Z,102945.63
2023-01-25T11:24:34.485Z,102936.72
2023-01-25T11:27:19.723Z,102933.91
2023-01-25T11:29:47.797Z,102932.44
2023-01-25T11:32:22.462Z,102927.44
2023-01-25T11:34:52.363Z,102926.09
2023-01-25T11:37:40.372Z,102916.69
2023-01-25T11:40:17.791Z,102918.47
2023-01-25T11:43:03.577Z,102910.59
2023-01-25T11:46:11.447Z,102896.88
2023-01-25T11:48:56.919Z,102897.69
2023-01-25T11:51:30.449Z,102887.97
2023-01-25T11:54:05.738Z,102885.53
2023-01-25T11:56:47.656Z,102874.91
2023-01-25T11:59:32.213Z,102860.78
2023-01-25T12:02:15.880Z,102863.19
2023-01-25T12:05:09.698Z,102855.53
2023-01-25T12:07:52.386Z,102859.66
2023-01-25T12:10:31.853Z,102857.41
2023-01-25T12:13:07.109Z,102849.41
2023-01-25T12:15:52.829Z,102846.06
2023-01-25T12:19:02.223Z,102837.97
2023-01-25T12:21:43.842Z,102827.06
2023-01-25T12:24:36.935Z,102826.34
2023-01-25T12:27:15.379Z,102816.41
2023-01-25T12:29:48.906Z,102803.31
2023-01-25T12:32:20.422Z,102805.06
2023-01-25T12:34:52.285Z,102788.63
2023-01-25T12:37:25.732Z,102792.19
2023-01-25T12:39:59.562Z,102777.22
2023-01-25T12:42:32.573Z,102777.03
2023-01-25T12:45:05.225Z,102762.31
2023-01-25T12:47:39.144Z,102767.75
2023-01-25T12:50:17.033Z,102762.41
2023-01-25T12:52:49.677Z,102756.25
2023-01-25T12:55:19.933Z,102754.38
2023-01-25T12:57:57.076Z,102750.97
2023-01-25T13:00:32.816Z,102748.34
2023-01-25T13:03:09.159Z,102738.63
2023-01-25T13:05:47.213Z,102738.41
2023-01-25T13:08:33.008Z,102733.47
2023-01-25T13:11:11.064Z,102723.09
2023-01-25T13:13:38.932Z,102716.72
2023-01-25T13:16:36.196Z,102713.22
2023-01-25T13:19:04.459Z,102703.69
2023-01-25T13:21:46.120Z,102699.28
2023-01-25T13:24:23.930Z,102695.00
2023-01-25T13:27:05.149Z,102697.63
2023-01-25T13:30:00.548Z,102692.41
2023-01-25T13:33:06.299Z,102697.63
2023-01-25T13:35:39.230Z,102687.91
2023-01-25T13:38:29.243Z,102692.09
2023-01-25T13:41:18.442Z,102690.22
2023-01-25T13:44:16.651Z,102699.28
2023-01-25T13:46:44.495Z,102696.56
2023-01-25T13:49:22.406Z,102686.78
2023-01-25T13:51:50.217Z,102694.72
2023-01-25T13:54:18.380Z,102694.66
2023-01-25T13:56:46.497Z,102705.34
2023-01-25T13:59:27.225Z,102704.38
2023-01-25T14:01:55.704Z,102702.72
2023-01-25T14:04:23.837Z,102702.72
2023-01-25T14:06:58.040Z,102706.25
2023-01-25T14:09:26.201Z,102705.34
2023-01-25T14:11:56.701Z,102708.00
2023-01-25T14:14:29.794Z,102703.56
2023-01-25T14:17:14.064Z,102707.94
2023-01-25T14:19:44.449Z,102707.84
2023-01-25T14:22:25.193Z,102707.00
2023-01-25T14:25:08.405Z,102700.06
2023-01-25T14:27:37.341Z,102697.56
2023-01-25T14:30:07.823Z,102695.91
2023-01-25T14:32:36.946Z,102693.28
2023-01-25T14:35:54.290Z,102691.53
2023-01-25T14:38:29.333Z,102695.88
2023-01-25T14:41:01.820Z,102697.69
2023-01-25T14:43:29.772Z,102700.31
2023-01-25T14:45:59.214Z,102703.03
2023-01-25T14:48:37.877Z,102705.69
2023-01-25T14:51:12.793Z,102695.09
2023-01-25T14:53:43.795Z,102696.88
2023-01-25T14:56:28.784Z,102701.28
2023-01-25T14:59:00.056Z,102694.22
2023-01-25T15:01:34.203Z,102695.06
2023-01-25T15:04:02.172Z,102688.03
2023-01-25T15:06:29.981Z,102685.31
2023-01-25T15:08:57.782Z,102682.75
2023-01-25T15:11:38.816Z,102695.94
2023-01-25T15:14:19.080Z,102704.78
2023-01-25T15:16:48.306Z,102712.75
2023-01-25T15:19:30.043Z,102711.88
2023-01-25T15:21:59.832Z,102712.72
2023-01-25T15:24:28.925Z,102713.66
2023-01-25T15:26:56.778Z,102714.53
2023-01-25T15:29:27.480Z,102703.88
2023-01-25T15:31:57.482Z,102700.28
2023-01-25T15:34:29.525Z,102709.13
2023-01-25T15:36:57.383Z,102706.53
2023-01-25T15:39:25.206Z,102707.38
2023-01-25T15:41:52.983Z,102716.22
2023-01-25T15:44:21.052Z,102712.66
2023-01-25T15:46:51.925Z,102705.47
2023-01-25T15:49:26.802Z,102715.22
2023-01-25T15:51:55.072Z,102695.88
2023-01-25T15:54:24.202Z,102702.94
2023-01-25T15:56:55.935Z,102711.91
2023-01-25T15:59:23.826Z,102707.47
2023-01-25T16:01:51.584Z,102700.38
2023-01-25T16:04:19.371Z,102707.41
2023-01-25T16:06:50.460Z,102709.19
2023-01-25T16:09:20.352Z,102698.53
2023-01-25T16:11:50.651Z,102704.75
2023-01-25T16:14:19.184Z,102703.91
2023-01-25T16:16:49.696Z,102702.16
2023-01-25T16:19:19.309Z,102695.97
2023-01-25T16:21:48.515Z,102696.84
2023-01-25T16:24:16.962Z,102695.97
2023-01-25T16:26:46.885Z,102702.16
2023-01-25T16:29:15.024Z,102700.38
2023-01-25T16:31:42.890Z,102703.06
2023-01-25T16:34:10.746Z,102700.44
2023-01-25T16:36:39.653Z,102696.00
2023-01-25T16:39:16.174Z,102702.16
2023-01-25T16:41:43.910Z,102692.47
2023-01-25T16:44:11.745Z,102688.06
2023-01-25T16:46:39.468Z,102692.47
2023-01-25T16:49:09.918Z,102682.75
2023-01-25T16:51:38.576Z,102682.75
2023-01-25T16:54:06.714Z,102672.16
2023-01-25T16:56:35.871Z,102667.72
2023-01-25T16:59:05.892Z,102650.06
2023-01-25T17:01:33.937Z,102632.38
2023-01-25T17:04:02.067Z,102634.16
2023-01-25T17:06:34.264Z,102634.16
2023-01-25T17:09:12.731Z,102629.72
2023-01-25T17:11:49.948Z,102620.91
2023-01-25T17:14:19.800Z,102620.03
2023-01-25T17:16:50.345Z,102612.00
2023-01-25T17:19:18.772Z,102607.56
2023-01-25T17:21:47.363Z,102593.41
2023-01-25T17:24:17.889Z,102583.75
2023-01-25T17:26:45.771Z,102583.72
2023-01-25T17:29:14.956Z,102583.69
2023-01-25T17:31:44.367Z,102590.78
2023-01-25T17:34:15.951Z,102596.09
2023-01-25T17:36:44.573Z,102579.31
2023-01-25T17:39:15.366Z,102594.31
2023-01-25T17:41:43.237Z,102586.34
2023-01-25T17:44:11.105Z,102588.16
2023-01-25T17:46:40.365Z,102575.69
2023-01-25T17:49:11.982Z,102580.97
2023-01-25T17:51:39.879Z,102581.06
2023-01-25T17:54:08.159Z,102585.47
2023-01-25T17:56:38.504Z,102584.63
2023-01-25T17:59:08.820Z,102577.56
2023-01-25T18:01:37.258Z,102579.34
2023-01-25T18:04:08.263Z,102576.72
2023-01-25T18:06:36.040Z,102580.25
2023-01-25T18:09:06.025Z,102582.00
2023-01-25T18:11:36.713Z,102580.25
2023-01-25T18:14:08.138Z,102580.25
2023-01-25T18:16:38.611Z,102579.38
2023-01-25T18:19:08.567Z,102584.63
2023-01-25T18:21:37.084Z,102588.16
2023-01-25T18:24:07.283Z,102584.66
2023-01-25T18:26:37.043Z,102579.34
2023-01-25T18:29:32.351Z,102585.47
2023-01-25T18:32:00.713Z,102592.53
2023-01-25T18:34:29.845Z,102599.66
2023-01-25T18:36:59.287Z,102589.06
2023-01-25T18:39:27.310Z,102594.34
2023-01-25T18:41:55.558Z,102593.44
2023-01-25T18:44:23.393Z,102591.72
2023-01-25T18:46:51.089Z,102580.22
2023-01-25T18:49:18.830Z,102566.09
2023-01-25T18:52:05.226Z,102575.84
2023-01-25T18:54:36.279Z,102576.69
2023-01-25T18:57:06.746Z,102575.78
2023-01-25T18:59:34.630Z,102582.78
2023-01-25T19:02:02.517Z,102578.44
2023-01-25T19:04:30.551Z,102589.88
2023-01-25T19:07:01.444Z,102583.69
2023-01-25T19:09:30.193Z,102581.06
2023-01-25T19:11:58.173Z,102586.38
2023-01-25T19:14:26.723Z,102582.81
2023-01-25T19:16:54.471Z,102574.03
2023-01-25T19:19:23.541Z,102562.47
2023-01-25T19:21:51.288Z,102555.44
2023-01-25T19:24:21.689Z,102554.50
2023-01-25T19:26:49.525Z,102552.72
2023-01-25T19:29:17.359Z,102553.69
2023-01-25T19:31:45.125Z,102549.22
2023-01-25T19:34:12.990Z,102543.00
2023-01-25T19:36:45.732Z,102547.41
2023-01-25T19:39:14.436Z,102534.16
2023-01-25T19:41:43.509Z,102517.44
2023-01-25T19:44:13.688Z,102507.69
2023-01-25T19:46:41.986Z,102495.31
2023-01-25T19:49:13.155Z,102483.81
2023-01-25T19:51:44.363Z,102480.28
2023-01-25T19:54:15.818Z,102467.00
2023-01-25T19:56:46.813Z,102464.41
2023-01-25T19:59:17.098Z,102462.66
2023-01-25T20:01:46.240Z,102475.88
2023-01-25T20:04:16.208Z,102464.31
2023-01-25T20:06:44.465Z,102466.03
2023-01-25T20:09:13.451Z,102467.81
2023-01-25T20:11:41.627Z,102463.44
2023-01-25T20:14:13.193Z,102459.97
2023-01-25T20:16:41.086Z,102448.59
2023-01-25T20:19:11.821Z,102445.97
2023-01-25T20:21:39.974Z,102453.88
2023-01-25T20:24:10.170Z,102454.75
2023-01-25T20:26:39.726Z,102460.91
2023-01-25T20:29:08.736Z,102457.38
2023-01-25T20:31:39.481Z,102456.47
2023-01-25T20:34:09.690Z,102459.09
2023-01-25T20:36:37.686Z,102443.16
2023-01-25T20:39:06.753Z,102444.91
2023-01-25T20:41:34.714Z,102437.88
2023-01-25T20:44:08.369Z,102434.28
2023-01-25T20:46:39.021Z,102440.44
2023-01-25T20:49:09.209Z,102433.34
2023-01-25T20:51:37.211Z,102430.66
2023-01-25T20:54:05.029Z,102428.97
2023-01-25T20:56:33.318Z,102433.41
2023-01-25T20:59:01.087Z,102422.78
2023-01-25T21:01:33.410Z,102422.84
2023-01-25T21:04:02.592Z,102411.41
2023-01-25T21:06:30.586Z,102409.66
2023-01-25T21:08:59.287Z,102407.88
2023-01-25T21:11:27.153Z,102413.19
2023-01-25T21:13:54.968Z,102411.38
2023-01-25T21:16:24.073Z,102409.59
2023-01-25T21:18:54.476Z,102414.00
2023-01-25T21:21:27.673Z,102423.72
2023-01-25T21:23:57.650Z,102421.91
2023-01-25T21:26:27.453Z,102420.97
2023-01-25T21:28:56.180Z,102417.44
2023-01-25T21:31:26.017Z,102406.75
2023-01-25T21:33:55.026Z,102404.97
2023-01-25T21:36:24.242Z,102401.41
2023-01-25T21:38:53.646Z,102404.97
2023-01-25T21:41:24.478Z,102405.94
2023-01-25T21:44:11.760Z,102394.53
2023-01-25T21:46:39.920Z,102385.66
2023-01-25T21:49:27.254Z,102383.94
2023-01-25T21:51:59.238Z,102379.50
2023-01-25T21:54:28.735Z,102376.81
2023-01-25T21:56:57.659Z,102371.53
2023-01-25T21:59:25.931Z,102362.69
2023-01-25T22:01:54.679Z,102353.00
2023-01-25T22:04:24.045Z,102352.09
2023-01-25T22:06:54.294Z,102357.38
2023-01-25T22:09:23.996Z,102350.25
2023-01-25T22:11:51.794Z,102329.88
2023-01-25T22:14:23.052Z,102328.94
2023-01-25T22:16:50.922Z,102324.56
2023-01-25T22:19:18.861Z,102325.56
2023-01-25T22:21:46.816Z,102323.78
2023-01-25T22:24:14.829Z,102310.47
2023-01-25T22:26:51.447Z,102299.91
2023-01-25T22:29:19.279Z,102288.53
2023-01-25T22:31:47.110Z,102277.97
2023-01-25T22:34:14.883Z,102261.22
2023-01-25T22:36:43.016Z,102250.66
2023-01-25T22:39:13.885Z,102245.34
2023-01-25T22:41:42.723Z,102261.16
2023-01-25T22:44:14.426Z,102252.28
2023-01-25T22:46:42.187Z,102240.75
2023-01-25T22:49:09.922Z,102246.09
2023-01-25T22:51:37.772Z,102239.97
2023-01-25T22:54:06.059Z,102229.22
2023-01-25T22:56:35.000Z,102231.81
2023-01-25T22:59:02.924Z,102229.13
2023-01-25T23:01:33.953Z,102218.44
2023-01-25T23:04:02.518Z,102213.13
2023-01-25T23:06:33.153Z,102224.72
2023-01-25T23:09:04.118Z,102214.19
2023-01-25T23:11:35.681Z,102219.59
2023-01-25T23:14:21.623Z,102209.13
2023-01-25T23:16:50.684Z,102208.22
2023-01-25T23:19:17.537Z,102204.69
2023-01-25T23:21:45.673Z,102212.59
2023-01-25T23:24:13.646Z,102201.94
2023-01-25T23:26:46.470Z,102204.69
2023-01-25T23:29:14.916Z,102204.84
2023-01-25T23:31:43.031Z,102203.06
2023-01-25T23:34:12.921Z,102185.16
2023-01-25T23:36:42.332Z,102181.50
2023-01-25T23:39:12.944Z,102175.19
2023-01-25T23:41:40.800Z,102178.72
2023-01-25T23:44:09.098Z,102170.81
2023-01-25T23:46:37.010Z,102153.19
2023-01-25T23:49:04.941Z,102155.00
2023-01-25T23:51:34.071Z,102147.19
2023-01-25T23:54:01.881Z,102146.38
2023-01-25T23:56:29.635Z,102136.75
2023-01-25T23:58:57.334Z,102137.63
